Terminal Aerodrome Forecast
Issued by NWS North Platte, NE

Home | Current Version | Previous Version | Text Only | Print | Product List | Glossary On
Versions: 1 2 3 4 5 6 7 8 9 10 11 12
043
FTUS43 KLBF 040520
TAFVTN
TAF
KVTN 040520Z 0406/0506 27006KT P6SM SCT100 BKN200
     FM040900 27009KT P6SM SCT200
     FM042200 24007KT P6SM SCT250
     FM050000 20006KT P6SM SCT250
     FM050300 20007KT P6SM SCT200 WS020/23040KT=

USA.gov is the U.S. government's official web portal to all federal, state and local government web resources and services.